sensor_id;sensor_type;location;lat;lon;timestamp;temperature;humidity
33717;DHT22;20046;50.746;7.072;2022-11-20T00:00:24;3.40;99.90
33717;DHT22;20046;50.746;7.072;2022-11-20T00:02:50;3.40;99.90
33717;DHT22;20046;50.746;7.072;2022-11-20T00:05:15;3.40;99.90
33717;DHT22;20046;50.746;7.072;2022-11-20T00:07:41;3.40;99.90
33717;DHT22;20046;50.746;7.072;2022-11-20T00:10:06;3.40;99.90
33717;DHT22;20046;50.746;7.072;2022-11-20T00:12:32;3.40;99.90
33717;DHT22;20046;50.746;7.072;2022-11-20T00:14:58;3.40;99.90
33717;DHT22;20046;50.746;7.072;2022-11-20T00:17:23;3.40;99.90
33717;DHT22;20046;50.746;7.072;2022-11-20T00:19:49;3.40;99.90
33717;DHT22;20046;50.746;7.072;2022-11-20T00:22:14;3.40;99.90
33717;DHT22;20046;50.746;7.072;2022-11-20T00:24:40;3.40;99.90
33717;DHT22;20046;50.746;7.072;2022-11-20T00:27:05;3.40;99.90
33717;DHT22;20046;50.746;7.072;2022-11-20T00:29:31;3.40;99.90
33717;DHT22;20046;50.746;7.072;2022-11-20T00:31:57;3.40;99.90
33717;DHT22;20046;50.746;7.072;2022-11-20T00:34:22;3.30;99.90
33717;DHT22;20046;50.746;7.072;2022-11-20T00:36:48;3.30;99.90
33717;DHT22;20046;50.746;7.072;2022-11-20T00:39:13;3.30;99.90
33717;DHT22;20046;50.746;7.072;2022-11-20T00:41:39;3.30;99.90
33717;DHT22;20046;50.746;7.072;2022-11-20T00:44:04;3.30;99.90
33717;DHT22;20046;50.746;7.072;2022-11-20T00:46:30;3.30;99.90
33717;DHT22;20046;50.746;7.072;2022-11-20T00:48:56;3.30;99.90
33717;DHT22;20046;50.746;7.072;2022-11-20T00:51:24;3.30;99.90
33717;DHT22;20046;50.746;7.072;2022-11-20T00:53:49;3.30;99.90
33717;DHT22;20046;50.746;7.072;2022-11-20T00:56:17;3.30;99.90
33717;DHT22;20046;50.746;7.072;2022-11-20T00:58:45;3.30;99.90
33717;DHT22;20046;50.746;7.072;2022-11-20T01:03:43;3.30;99.90
33717;DHT22;20046;50.746;7.072;2022-11-20T01:08:46;3.30;99.90
33717;DHT22;20046;50.746;7.072;2022-11-20T01:11:15;3.30;99.90
33717;DHT22;20046;50.746;7.072;2022-11-20T01:13:41;3.30;99.90
33717;DHT22;20046;50.746;7.072;2022-11-20T01:16:12;3.20;99.90
33717;DHT22;20046;50.746;7.072;2022-11-20T01:18:40;3.20;99.90
33717;DHT22;20046;50.746;7.072;2022-11-20T01:21:08;3.30;99.90
33717;DHT22;20046;50.746;7.072;2022-11-20T01:23:36;3.30;99.90
33717;DHT22;20046;50.746;7.072;2022-11-20T01:26:04;3.30;99.90
33717;DHT22;20046;50.746;7.072;2022-11-20T01:28:30;3.30;99.90
33717;DHT22;20046;50.746;7.072;2022-11-20T01:30:56;3.30;99.90
33717;DHT22;20046;50.746;7.072;2022-11-20T01:33:22;3.30;99.90
33717;DHT22;20046;50.746;7.072;2022-11-20T01:35:48;3.30;99.90
33717;DHT22;20046;50.746;7.072;2022-11-20T01:38:15;3.30;99.90
33717;DHT22;20046;50.746;7.072;2022-11-20T01:40:41;3.30;99.90
33717;DHT22;20046;50.746;7.072;2022-11-20T01:43:27;3.30;99.90
33717;DHT22;20046;50.746;7.072;2022-11-20T01:48:31;3.30;99.90
33717;DHT22;20046;50.746;7.072;2022-11-20T01:50:58;3.40;99.90
33717;DHT22;20046;50.746;7.072;2022-11-20T01:53:28;3.40;99.90
33717;DHT22;20046;50.746;7.072;2022-11-20T01:55:56;3.40;99.90
33717;DHT22;20046;50.746;7.072;2022-11-20T01:58:28;3.40;99.90
33717;DHT22;20046;50.746;7.072;2022-11-20T02:00:55;3.40;99.90
33717;DHT22;20046;50.746;7.072;2022-11-20T02:03:21;3.40;99.90
33717;DHT22;20046;50.746;7.072;2022-11-20T02:05:56;3.40;99.90
33717;DHT22;20046;50.746;7.072;2022-11-20T02:08:23;3.40;99.90
33717;DHT22;20046;50.746;7.072;2022-11-20T02:10:49;3.40;99.90
33717;DHT22;20046;50.746;7.072;2022-11-20T02:13:15;3.40;99.90
33717;DHT22;20046;50.746;7.072;2022-11-20T02:16:00;3.40;99.90
33717;DHT22;20046;50.746;7.072;2022-11-20T02:18:26;3.40;99.90
33717;DHT22;20046;50.746;7.072;2022-11-20T02:24:30;3.40;99.90
33717;DHT22;20046;50.746;7.072;2022-11-20T02:26:54;3.30;99.90
33717;DHT22;20046;50.746;7.072;2022-11-20T02:29:47;3.30;99.90
33717;DHT22;20046;50.746;7.072;2022-11-20T02:32:25;3.20;99.90
33717;DHT22;20046;50.746;7.072;2022-11-20T02:34:50;3.20;99.90
33717;DHT22;20046;50.746;7.072;2022-11-20T02:37:16;3.20;99.90
33717;DHT22;20046;50.746;7.072;2022-11-20T02:39:44;3.20;99.90
33717;DHT22;20046;50.746;7.072;2022-11-20T02:42:11;3.20;99.90
33717;DHT22;20046;50.746;7.072;2022-11-20T02:44:36;3.20;99.90
33717;DHT22;20046;50.746;7.072;2022-11-20T02:47:02;3.20;99.90
33717;DHT22;20046;50.746;7.072;2022-11-20T02:49:28;3.20;99.90
33717;DHT22;20046;50.746;7.072;2022-11-20T02:51:54;3.20;99.90
33717;DHT22;20046;50.746;7.072;2022-11-20T02:54:19;3.30;99.90
33717;DHT22;20046;50.746;7.072;2022-11-20T02:56:45;3.30;99.90
33717;DHT22;20046;50.746;7.072;2022-11-20T02:59:10;3.20;99.90
33717;DHT22;20046;50.746;7.072;2022-11-20T03:01:36;3.20;99.90
33717;DHT22;20046;50.746;7.072;2022-11-20T03:04:02;3.20;99.90
33717;DHT22;20046;50.746;7.072;2022-11-20T03:06:27;3.20;99.90
33717;DHT22;20046;50.746;7.072;2022-11-20T03:08:53;3.20;99.90
33717;DHT22;20046;50.746;7.072;2022-11-20T03:11:19;3.30;99.90
33717;DHT22;20046;50.746;7.072;2022-11-20T03:13:45;3.30;99.90
33717;DHT22;20046;50.746;7.072;2022-11-20T03:16:14;3.30;99.90
33717;DHT22;20046;50.746;7.072;2022-11-20T03:18:41;3.30;99.90
33717;DHT22;20046;50.746;7.072;2022-11-20T03:21:07;3.30;99.90
33717;DHT22;20046;50.746;7.072;2022-11-20T03:23:34;3.30;99.90
33717;DHT22;20046;50.746;7.072;2022-11-20T03:26:21;3.30;99.90
33717;DHT22;20046;50.746;7.072;2022-11-20T03:28:51;3.40;99.90
33717;DHT22;20046;50.746;7.072;2022-11-20T03:31:19;3.40;99.90
33717;DHT22;20046;50.746;7.072;2022-11-20T03:33:45;3.40;99.90
33717;DHT22;20046;50.746;7.072;2022-11-20T03:36:13;3.40;99.90
33717;DHT22;20046;50.746;7.072;2022-11-20T03:38:39;3.30;99.90
33717;DHT22;20046;50.746;7.072;2022-11-20T03:41:08;3.30;99.90
33717;DHT22;20046;50.746;7.072;2022-11-20T03:43:34;3.30;99.90
33717;DHT22;20046;50.746;7.072;2022-11-20T03:46:00;3.30;99.90
33717;DHT22;20046;50.746;7.072;2022-11-20T03:48:25;3.30;99.90
33717;DHT22;20046;50.746;7.072;2022-11-20T03:50:52;3.30;99.90
33717;DHT22;20046;50.746;7.072;2022-11-20T03:53:19;3.30;99.90
33717;DHT22;20046;50.746;7.072;2022-11-20T03:55:45;3.30;99.90
33717;DHT22;20046;50.746;7.072;2022-11-20T03:58:15;3.30;99.90
33717;DHT22;20046;50.746;7.072;2022-11-20T04:00:40;3.40;99.90
33717;DHT22;20046;50.746;7.072;2022-11-20T04:03:06;3.30;99.90
33717;DHT22;20046;50.746;7.072;2022-11-20T04:05:33;3.30;99.90
33717;DHT22;20046;50.746;7.072;2022-11-20T04:07:59;3.30;99.90
33717;DHT22;20046;50.746;7.072;2022-11-20T04:10:25;3.40;99.90
33717;DHT22;20046;50.746;7.072;2022-11-20T04:12:50;3.40;99.90
33717;DHT22;20046;50.746;7.072;2022-11-20T04:15:16;3.40;99.90
33717;DHT22;20046;50.746;7.072;2022-11-20T04:17:41;3.40;99.90
33717;DHT22;20046;50.746;7.072;2022-11-20T04:20:07;3.40;99.90
33717;DHT22;20046;50.746;7.072;2022-11-20T04:22:33;3.40;99.90
33717;DHT22;20046;50.746;7.072;2022-11-20T04:24:58;3.40;99.90
33717;DHT22;20046;50.746;7.072;2022-11-20T04:27:24;3.30;99.90
33717;DHT22;20046;50.746;7.072;2022-11-20T04:29:49;3.30;99.90
33717;DHT22;20046;50.746;7.072;2022-11-20T04:32:15;3.40;99.90
33717;DHT22;20046;50.746;7.072;2022-11-20T04:34:41;3.30;99.90
33717;DHT22;20046;50.746;7.072;2022-11-20T04:37:06;3.40;99.90
33717;DHT22;20046;50.746;7.072;2022-11-20T04:39:32;3.40;99.90
33717;DHT22;20046;50.746;7.072;2022-11-20T04:41:57;3.40;99.90
33717;DHT22;20046;50.746;7.072;2022-11-20T04:44:41;3.40;99.90
33717;DHT22;20046;50.746;7.072;2022-11-20T04:47:07;3.40;99.90
33717;DHT22;20046;50.746;7.072;2022-11-20T04:49:32;3.40;99.90
33717;DHT22;20046;50.746;7.072;2022-11-20T04:51:59;3.40;99.90
33717;DHT22;20046;50.746;7.072;2022-11-20T04:54:24;3.40;99.90
33717;DHT22;20046;50.746;7.072;2022-11-20T04:56:50;3.40;99.90
33717;DHT22;20046;50.746;7.072;2022-11-20T04:59:16;3.40;99.90
33717;DHT22;20046;50.746;7.072;2022-11-20T05:01:41;3.40;99.90
33717;DHT22;20046;50.746;7.072;2022-11-20T05:04:07;3.40;99.90
33717;DHT22;20046;50.746;7.072;2022-11-20T05:06:33;3.40;99.90
33717;DHT22;20046;50.746;7.072;2022-11-20T05:08:59;3.40;99.90
33717;DHT22;20046;50.746;7.072;2022-11-20T05:11:24;3.40;99.90
33717;DHT22;20046;50.746;7.072;2022-11-20T05:13:51;3.40;99.90
33717;DHT22;20046;50.746;7.072;2022-11-20T05:16:22;3.40;99.90
33717;DHT22;20046;50.746;7.072;2022-11-20T05:18:48;3.40;99.90
33717;DHT22;20046;50.746;7.072;2022-11-20T05:21:14;3.40;99.90
33717;DHT22;20046;50.746;7.072;2022-11-20T05:23:41;3.40;99.90
33717;DHT22;20046;50.746;7.072;2022-11-20T05:26:12;3.40;99.90
33717;DHT22;20046;50.746;7.072;2022-11-20T05:28:37;3.40;99.90
33717;DHT22;20046;50.746;7.072;2022-11-20T05:31:07;3.40;99.90
33717;DHT22;20046;50.746;7.072;2022-11-20T05:33:34;3.40;99.90
33717;DHT22;20046;50.746;7.072;2022-11-20T05:36:01;3.40;99.90
33717;DHT22;20046;50.746;7.072;2022-11-20T05:38:27;3.40;99.90
33717;DHT22;20046;50.746;7.072;2022-11-20T05:40:52;3.40;99.90
33717;DHT22;20046;50.746;7.072;2022-11-20T05:43:18;3.40;99.90
33717;DHT22;20046;50.746;7.072;2022-11-20T05:45:52;3.50;99.90
33717;DHT22;20046;50.746;7.072;2022-11-20T05:48:18;3.40;99.90
33717;DHT22;20046;50.746;7.072;2022-11-20T05:50:43;3.50;99.90
33717;DHT22;20046;50.746;7.072;2022-11-20T05:53:09;3.50;99.90
33717;DHT22;20046;50.746;7.072;2022-11-20T05:55:34;3.50;99.90
33717;DHT22;20046;50.746;7.072;2022-11-20T05:58:00;3.50;99.90
33717;DHT22;20046;50.746;7.072;2022-11-20T06:00:25;3.50;99.90
33717;DHT22;20046;50.746;7.072;2022-11-20T06:02:51;3.50;99.90
33717;DHT22;20046;50.746;7.072;2022-11-20T06:05:16;3.50;99.90
33717;DHT22;20046;50.746;7.072;2022-11-20T06:07:42;3.50;99.90
33717;DHT22;20046;50.746;7.072;2022-11-20T06:10:08;3.50;99.90
33717;DHT22;20046;50.746;7.072;2022-11-20T06:12:34;3.50;99.90
33717;DHT22;20046;50.746;7.072;2022-11-20T06:14:59;3.50;99.90
33717;DHT22;20046;50.746;7.072;2022-11-20T06:17:25;3.50;99.90
33717;DHT22;20046;50.746;7.072;2022-11-20T06:19:51;3.50;99.90
33717;DHT22;20046;50.746;7.072;2022-11-20T06:22:16;3.50;99.90
33717;DHT22;20046;50.746;7.072;2022-11-20T06:24:42;3.50;99.90
33717;DHT22;20046;50.746;7.072;2022-11-20T06:27:07;3.50;99.90
33717;DHT22;20046;50.746;7.072;2022-11-20T06:29:33;3.50;99.90
33717;DHT22;20046;50.746;7.072;2022-11-20T06:31:58;3.50;99.90
33717;DHT22;20046;50.746;7.072;2022-11-20T06:34:24;3.50;99.90
33717;DHT22;20046;50.746;7.072;2022-11-20T06:36:49;3.50;99.90
33717;DHT22;20046;50.746;7.072;2022-11-20T06:39:15;3.50;99.90
33717;DHT22;20046;50.746;7.072;2022-11-20T06:41:41;3.50;99.90
33717;DHT22;20046;50.746;7.072;2022-11-20T06:44:06;3.50;99.90
33717;DHT22;20046;50.746;7.072;2022-11-20T06:46:32;3.50;99.90
33717;DHT22;20046;50.746;7.072;2022-11-20T06:48:57;3.50;99.90
33717;DHT22;20046;50.746;7.072;2022-11-20T06:51:23;3.50;99.90
33717;DHT22;20046;50.746;7.072;2022-11-20T06:53:49;3.50;99.90
33717;DHT22;20046;50.746;7.072;2022-11-20T06:56:14;3.60;99.90
33717;DHT22;20046;50.746;7.072;2022-11-20T06:58:40;3.50;99.90
33717;DHT22;20046;50.746;7.072;2022-11-20T07:01:11;3.50;99.90
33717;DHT22;20046;50.746;7.072;2022-11-20T07:03:38;3.50;99.90
33717;DHT22;20046;50.746;7.072;2022-11-20T07:06:04;3.50;99.90
33717;DHT22;20046;50.746;7.072;2022-11-20T07:08:30;3.50;99.90
33717;DHT22;20046;50.746;7.072;2022-11-20T07:11:00;3.50;99.90
33717;DHT22;20046;50.746;7.072;2022-11-20T07:13:27;3.50;99.90
33717;DHT22;20046;50.746;7.072;2022-11-20T07:15:53;3.50;99.90
33717;DHT22;20046;50.746;7.072;2022-11-20T07:18:19;3.40;99.90
33717;DHT22;20046;50.746;7.072;2022-11-20T07:20:44;3.40;99.90
33717;DHT22;20046;50.746;7.072;2022-11-20T07:23:10;3.40;99.90
33717;DHT22;20046;50.746;7.072;2022-11-20T07:25:36;3.40;99.90
33717;DHT22;20046;50.746;7.072;2022-11-20T07:28:01;3.40;99.90
33717;DHT22;20046;50.746;7.072;2022-11-20T07:30:28;3.40;99.90
33717;DHT22;20046;50.746;7.072;2022-11-20T07:32:55;3.40;99.90
33717;DHT22;20046;50.746;7.072;2022-11-20T07:35:21;3.40;99.90
33717;DHT22;20046;50.746;7.072;2022-11-20T07:37:47;3.50;99.90
33717;DHT22;20046;50.746;7.072;2022-11-20T07:40:14;3.50;99.90
33717;DHT22;20046;50.746;7.072;2022-11-20T07:42:50;3.50;99.90
33717;DHT22;20046;50.746;7.072;2022-11-20T07:45:17;3.60;99.90
33717;DHT22;20046;50.746;7.072;2022-11-20T07:47:43;3.70;99.90
33717;DHT22;20046;50.746;7.072;2022-11-20T07:50:09;3.70;99.90
33717;DHT22;20046;50.746;7.072;2022-11-20T07:52:35;3.70;99.90
33717;DHT22;20046;50.746;7.072;2022-11-20T07:55:01;3.80;99.90
33717;DHT22;20046;50.746;7.072;2022-11-20T07:57:26;3.80;99.90
33717;DHT22;20046;50.746;7.072;2022-11-20T07:59:52;3.80;99.90
33717;DHT22;20046;50.746;7.072;2022-11-20T08:02:17;3.90;99.90
33717;DHT22;20046;50.746;7.072;2022-11-20T08:04:43;3.90;99.90
33717;DHT22;20046;50.746;7.072;2022-11-20T08:07:08;3.90;99.90
33717;DHT22;20046;50.746;7.072;2022-11-20T08:09:34;3.90;99.90
33717;DHT22;20046;50.746;7.072;2022-11-20T08:11:59;4.00;99.90
33717;DHT22;20046;50.746;7.072;2022-11-20T08:14:43;4.00;99.90
33717;DHT22;20046;50.746;7.072;2022-11-20T08:17:09;4.10;99.90
33717;DHT22;20046;50.746;7.072;2022-11-20T08:19:35;4.10;99.90
33717;DHT22;20046;50.746;7.072;2022-11-20T08:22:00;4.20;99.90
33717;DHT22;20046;50.746;7.072;2022-11-20T08:24:26;4.20;99.90
33717;DHT22;20046;50.746;7.072;2022-11-20T08:26:52;4.30;99.90
33717;DHT22;20046;50.746;7.072;2022-11-20T08:29:17;4.30;99.90
33717;DHT22;20046;50.746;7.072;2022-11-20T08:31:43;4.30;99.90
33717;DHT22;20046;50.746;7.072;2022-11-20T08:34:09;4.30;99.90
33717;DHT22;20046;50.746;7.072;2022-11-20T08:36:35;4.30;99.90
33717;DHT22;20046;50.746;7.072;2022-11-20T08:39:02;4.30;99.90
33717;DHT22;20046;50.746;7.072;2022-11-20T08:41:29;4.40;99.90
33717;DHT22;20046;50.746;7.072;2022-11-20T08:43:57;4.40;99.90
33717;DHT22;20046;50.746;7.072;2022-11-20T08:46:30;4.50;99.90
33717;DHT22;20046;50.746;7.072;2022-11-20T08:48:58;4.50;99.90
33717;DHT22;20046;50.746;7.072;2022-11-20T08:51:23;4.60;99.90
33717;DHT22;20046;50.746;7.072;2022-11-20T08:53:49;4.60;99.90
33717;DHT22;20046;50.746;7.072;2022-11-20T08:56:15;4.70;99.90
33717;DHT22;20046;50.746;7.072;2022-11-20T08:58:41;4.70;99.90
33717;DHT22;20046;50.746;7.072;2022-11-20T09:01:06;4.70;99.90
33717;DHT22;20046;50.746;7.072;2022-11-20T09:03:32;4.80;99.90
33717;DHT22;20046;50.746;7.072;2022-11-20T09:06:03;4.90;99.90
33717;DHT22;20046;50.746;7.072;2022-11-20T09:08:29;5.00;99.90
33717;DHT22;20046;50.746;7.072;2022-11-20T09:10:57;5.00;99.90
33717;DHT22;20046;50.746;7.072;2022-11-20T09:13:24;5.00;99.90
33717;DHT22;20046;50.746;7.072;2022-11-20T09:15:54;5.10;99.90
33717;DHT22;20046;50.746;7.072;2022-11-20T09:18:20;5.20;99.90
33717;DHT22;20046;50.746;7.072;2022-11-20T09:20:46;5.30;99.90
33717;DHT22;20046;50.746;7.072;2022-11-20T09:23:11;5.40;99.90
33717;DHT22;20046;50.746;7.072;2022-11-20T09:25:37;5.50;99.90
33717;DHT22;20046;50.746;7.072;2022-11-20T09:28:02;5.60;99.90
33717;DHT22;20046;50.746;7.072;2022-11-20T09:30:28;5.70;99.90
33717;DHT22;20046;50.746;7.072;2022-11-20T09:32:54;5.70;99.90
33717;DHT22;20046;50.746;7.072;2022-11-20T09:35:19;5.70;99.90
33717;DHT22;20046;50.746;7.072;2022-11-20T09:37:45;5.80;99.90
33717;DHT22;20046;50.746;7.072;2022-11-20T09:40:38;5.80;99.90
33717;DHT22;20046;50.746;7.072;2022-11-20T09:43:23;5.70;99.90
33717;DHT22;20046;50.746;7.072;2022-11-20T09:46:02;5.70;99.90
33717;DHT22;20046;50.746;7.072;2022-11-20T09:51:54;5.70;99.90
33717;DHT22;20046;50.746;7.072;2022-11-20T09:54:27;6.00;99.90
33717;DHT22;20046;50.746;7.072;2022-11-20T09:56:56;6.30;99.90
33717;DHT22;20046;50.746;7.072;2022-11-20T10:01:58;7.00;99.90
33717;DHT22;20046;50.746;7.072;2022-11-20T10:04:24;7.20;99.90
33717;DHT22;20046;50.746;7.072;2022-11-20T10:07:04;7.30;99.90
33717;DHT22;20046;50.746;7.072;2022-11-20T10:09:37;7.40;99.90
33717;DHT22;20046;50.746;7.072;2022-11-20T10:20:26;7.30;99.90
33717;DHT22;20046;50.746;7.072;2022-11-20T10:25:37;7.10;99.90
33717;DHT22;20046;50.746;7.072;2022-11-20T10:31:11;6.60;99.90
33717;DHT22;20046;50.746;7.072;2022-11-20T10:33:41;6.60;99.90
33717;DHT22;20046;50.746;7.072;2022-11-20T10:36:19;6.50;99.90
33717;DHT22;20046;50.746;7.072;2022-11-20T10:41:27;6.40;99.90
33717;DHT22;20046;50.746;7.072;2022-11-20T10:44:02;6.40;99.90
33717;DHT22;20046;50.746;7.072;2022-11-20T10:46:35;6.40;99.90
33717;DHT22;20046;50.746;7.072;2022-11-20T10:49:09;6.30;99.90
33717;DHT22;20046;50.746;7.072;2022-11-20T10:51:37;6.30;99.90
33717;DHT22;20046;50.746;7.072;2022-11-20T10:56:51;6.10;99.90
33717;DHT22;20046;50.746;7.072;2022-11-20T10:59:30;6.10;99.90
33717;DHT22;20046;50.746;7.072;2022-11-20T11:02:00;6.10;99.90
33717;DHT22;20046;50.746;7.072;2022-11-20T11:04:43;6.00;99.90
33717;DHT22;20046;50.746;7.072;2022-11-20T11:07:20;6.00;99.90
33717;DHT22;20046;50.746;7.072;2022-11-20T11:09:49;6.00;99.90
33717;DHT22;20046;50.746;7.072;2022-11-20T11:12:15;6.10;99.90
33717;DHT22;20046;50.746;7.072;2022-11-20T11:14:46;6.20;99.90
33717;DHT22;20046;50.746;7.072;2022-11-20T11:17:27;6.30;99.90
33717;DHT22;20046;50.746;7.072;2022-11-20T11:20:02;6.40;99.90
33717;DHT22;20046;50.746;7.072;2022-11-20T11:22:30;6.40;99.90
33717;DHT22;20046;50.746;7.072;2022-11-20T11:24:56;6.30;99.90
33717;DHT22;20046;50.746;7.072;2022-11-20T11:27:22;6.40;99.90
33717;DHT22;20046;50.746;7.072;2022-11-20T11:29:48;6.50;99.90
33717;DHT22;20046;50.746;7.072;2022-11-20T11:32:20;6.50;99.90
33717;DHT22;20046;50.746;7.072;2022-11-20T11:35:11;6.50;99.90
33717;DHT22;20046;50.746;7.072;2022-11-20T11:37:45;6.50;99.90
33717;DHT22;20046;50.746;7.072;2022-11-20T11:40:13;6.30;99.90
33717;DHT22;20046;50.746;7.072;2022-11-20T11:42:43;6.30;99.90
33717;DHT22;20046;50.746;7.072;2022-11-20T11:45:15;6.20;99.90
33717;DHT22;20046;50.746;7.072;2022-11-20T11:50:19;6.20;99.90
33717;DHT22;20046;50.746;7.072;2022-11-20T11:53:02;6.20;99.90
33717;DHT22;20046;50.746;7.072;2022-11-20T12:00:45;6.70;99.90
33717;DHT22;20046;50.746;7.072;2022-11-20T12:03:24;6.60;99.90
33717;DHT22;20046;50.746;7.072;2022-11-20T12:06:03;6.60;99.90
33717;DHT22;20046;50.746;7.072;2022-11-20T12:09:02;6.60;99.90
33717;DHT22;20046;50.746;7.072;2022-11-20T12:14:20;6.70;99.90
33717;DHT22;20046;50.746;7.072;2022-11-20T12:16:49;6.80;99.90
33717;DHT22;20046;50.746;7.072;2022-11-20T12:19:15;7.00;99.90
33717;DHT22;20046;50.746;7.072;2022-11-20T12:29:43;7.40;99.90
33717;DHT22;20046;50.746;7.072;2022-11-20T12:37:38;7.60;99.90
33717;DHT22;20046;50.746;7.072;2022-11-20T12:46:19;7.40;99.90
33717;DHT22;20046;50.746;7.072;2022-11-20T12:48:50;7.30;99.90
33717;DHT22;20046;50.746;7.072;2022-11-20T12:59:39;7.10;99.90
33717;DHT22;20046;50.746;7.072;2022-11-20T13:02:23;7.10;99.90
33717;DHT22;20046;50.746;7.072;2022-11-20T13:07:19;7.10;99.90
33717;DHT22;20046;50.746;7.072;2022-11-20T13:09:49;7.10;99.90
33717;DHT22;20046;50.746;7.072;2022-11-20T13:12:25;7.10;99.90
33717;DHT22;20046;50.746;7.072;2022-11-20T13:18:01;7.20;99.90
33717;DHT22;20046;50.746;7.072;2022-11-20T13:20:28;7.10;99.90
33717;DHT22;20046;50.746;7.072;2022-11-20T13:22:55;7.20;99.90
33717;DHT22;20046;50.746;7.072;2022-11-20T13:25:29;7.30;99.90
33717;DHT22;20046;50.746;7.072;2022-11-20T13:27:58;7.30;99.90
33717;DHT22;20046;50.746;7.072;2022-11-20T13:30:26;7.30;99.90
33717;DHT22;20046;50.746;7.072;2022-11-20T13:33:01;7.30;99.90
33717;DHT22;20046;50.746;7.072;2022-11-20T13:40:29;7.10;99.90
33717;DHT22;20046;50.746;7.072;2022-11-20T13:45:26;6.90;99.90
33717;DHT22;20046;50.746;7.072;2022-11-20T13:47:53;6.90;99.90
33717;DHT22;20046;50.746;7.072;2022-11-20T13:50:38;7.00;99.90
33717;DHT22;20046;50.746;7.072;2022-11-20T13:53:31;7.00;99.90
33717;DHT22;20046;50.746;7.072;2022-11-20T13:56:08;7.10;99.90
33717;DHT22;20046;50.746;7.072;2022-11-20T14:01:28;7.20;99.90
33717;DHT22;20046;50.746;7.072;2022-11-20T14:03:55;7.10;99.90
33717;DHT22;20046;50.746;7.072;2022-11-20T14:06:32;7.10;99.90
33717;DHT22;20046;50.746;7.072;2022-11-20T14:09:00;7.10;99.90
33717;DHT22;20046;50.746;7.072;2022-11-20T14:11:27;7.10;99.90
33717;DHT22;20046;50.746;7.072;2022-11-20T14:14:04;7.10;99.90
33717;DHT22;20046;50.746;7.072;2022-11-20T14:16:37;7.20;99.90
33717;DHT22;20046;50.746;7.072;2022-11-20T14:21:49;7.20;99.90
33717;DHT22;20046;50.746;7.072;2022-11-20T14:24:20;7.20;99.90
33717;DHT22;20046;50.746;7.072;2022-11-20T14:26:46;7.20;99.90
33717;DHT22;20046;50.746;7.072;2022-11-20T14:29:21;7.20;99.90
33717;DHT22;20046;50.746;7.072;2022-11-20T14:31:50;7.20;99.90
33717;DHT22;20046;50.746;7.072;2022-11-20T14:34:20;7.30;99.90
33717;DHT22;20046;50.746;7.072;2022-11-20T14:36:47;7.30;99.90
33717;DHT22;20046;50.746;7.072;2022-11-20T14:39:25;7.30;99.90
33717;DHT22;20046;50.746;7.072;2022-11-20T14:41:53;7.30;99.90
33717;DHT22;20046;50.746;7.072;2022-11-20T14:44:22;7.30;99.90
33717;DHT22;20046;50.746;7.072;2022-11-20T14:46:48;7.30;99.90
33717;DHT22;20046;50.746;7.072;2022-11-20T14:49:14;7.30;99.90
33717;DHT22;20046;50.746;7.072;2022-11-20T14:51:40;7.30;99.90
33717;DHT22;20046;50.746;7.072;2022-11-20T14:54:20;7.30;99.90
33717;DHT22;20046;50.746;7.072;2022-11-20T14:56:54;7.20;99.90
33717;DHT22;20046;50.746;7.072;2022-11-20T14:59:25;7.20;99.90
33717;DHT22;20046;50.746;7.072;2022-11-20T15:02:05;7.30;99.90
33717;DHT22;20046;50.746;7.072;2022-11-20T15:04:31;7.20;99.90
33717;DHT22;20046;50.746;7.072;2022-11-20T15:07:00;7.20;99.90
33717;DHT22;20046;50.746;7.072;2022-11-20T15:09:25;7.20;99.90
33717;DHT22;20046;50.746;7.072;2022-11-20T15:11:59;7.20;99.90
33717;DHT22;20046;50.746;7.072;2022-11-20T15:14:27;7.20;99.90
33717;DHT22;20046;50.746;7.072;2022-11-20T15:16:54;7.30;99.90
33717;DHT22;20046;50.746;7.072;2022-11-20T15:19:24;7.30;99.90
33717;DHT22;20046;50.746;7.072;2022-11-20T15:21:51;7.30;99.90
33717;DHT22;20046;50.746;7.072;2022-11-20T15:24:17;7.30;99.90
33717;DHT22;20046;50.746;7.072;2022-11-20T15:26:43;7.20;99.90
33717;DHT22;20046;50.746;7.072;2022-11-20T15:29:11;7.20;99.90
33717;DHT22;20046;50.746;7.072;2022-11-20T15:31:37;7.20;99.90
33717;DHT22;20046;50.746;7.072;2022-11-20T15:34:13;7.20;99.90
33717;DHT22;20046;50.746;7.072;2022-11-20T15:36:39;7.30;99.90
33717;DHT22;20046;50.746;7.072;2022-11-20T15:39:06;7.20;99.90
33717;DHT22;20046;50.746;7.072;2022-11-20T15:41:35;7.20;99.90
33717;DHT22;20046;50.746;7.072;2022-11-20T15:44:01;7.20;99.90
33717;DHT22;20046;50.746;7.072;2022-11-20T15:46:29;7.10;99.90
33717;DHT22;20046;50.746;7.072;2022-11-20T15:48:56;7.10;99.90
33717;DHT22;20046;50.746;7.072;2022-11-20T15:51:36;7.00;99.90
33717;DHT22;20046;50.746;7.072;2022-11-20T15:54:16;6.90;99.90
33717;DHT22;20046;50.746;7.072;2022-11-20T15:56:43;6.90;99.90
33717;DHT22;20046;50.746;7.072;2022-11-20T15:59:09;6.90;99.90
33717;DHT22;20046;50.746;7.072;2022-11-20T16:01:34;6.80;99.90
33717;DHT22;20046;50.746;7.072;2022-11-20T16:04:00;6.80;99.90
33717;DHT22;20046;50.746;7.072;2022-11-20T16:06:26;6.80;99.90
33717;DHT22;20046;50.746;7.072;2022-11-20T16:08:52;6.80;99.90
33717;DHT22;20046;50.746;7.072;2022-11-20T16:11:18;6.80;99.90
33717;DHT22;20046;50.746;7.072;2022-11-20T16:13:44;6.70;99.90
33717;DHT22;20046;50.746;7.072;2022-11-20T16:18:56;6.70;99.90
33717;DHT22;20046;50.746;7.072;2022-11-20T16:21:22;6.70;99.90
33717;DHT22;20046;50.746;7.072;2022-11-20T16:24:01;6.70;99.90
33717;DHT22;20046;50.746;7.072;2022-11-20T16:26:27;6.60;99.90
33717;DHT22;20046;50.746;7.072;2022-11-20T16:28:53;6.60;99.90
33717;DHT22;20046;50.746;7.072;2022-11-20T16:31:19;6.60;99.90
33717;DHT22;20046;50.746;7.072;2022-11-20T16:33:56;6.70;99.90
33717;DHT22;20046;50.746;7.072;2022-11-20T16:36:23;6.60;99.90
33717;DHT22;20046;50.746;7.072;2022-11-20T16:38:57;6.60;99.90
33717;DHT22;20046;50.746;7.072;2022-11-20T16:41:25;6.60;99.90
33717;DHT22;20046;50.746;7.072;2022-11-20T16:43:55;6.60;99.90
33717;DHT22;20046;50.746;7.072;2022-11-20T16:46:25;6.60;99.90
33717;DHT22;20046;50.746;7.072;2022-11-20T16:49:03;6.60;99.90
33717;DHT22;20046;50.746;7.072;2022-11-20T16:51:31;6.60;99.90
33717;DHT22;20046;50.746;7.072;2022-11-20T16:54:01;6.60;99.90
33717;DHT22;20046;50.746;7.072;2022-11-20T16:56:26;6.50;99.90
33717;DHT22;20046;50.746;7.072;2022-11-20T16:58:54;6.60;99.90
33717;DHT22;20046;50.746;7.072;2022-11-20T17:01:21;6.50;99.90
33717;DHT22;20046;50.746;7.072;2022-11-20T17:03:55;6.50;99.90
33717;DHT22;20046;50.746;7.072;2022-11-20T17:06:23;6.50;99.90
33717;DHT22;20046;50.746;7.072;2022-11-20T17:08:49;6.50;99.90
33717;DHT22;20046;50.746;7.072;2022-11-20T17:11:17;6.50;99.90
33717;DHT22;20046;50.746;7.072;2022-11-20T17:13:43;6.50;99.90
33717;DHT22;20046;50.746;7.072;2022-11-20T17:16:12;6.50;99.90
33717;DHT22;20046;50.746;7.072;2022-11-20T17:18:38;6.50;99.90
33717;DHT22;20046;50.746;7.072;2022-11-20T17:21:04;6.50;99.90
33717;DHT22;20046;50.746;7.072;2022-11-20T17:23:34;6.50;99.90
33717;DHT22;20046;50.746;7.072;2022-11-20T17:28:30;6.50;99.90
33717;DHT22;20046;50.746;7.072;2022-11-20T17:31:10;6.40;99.90